Time;durP1;ratioP1;P1;durP2;ratioP2;P2;SDS_P1;SDS_P2;PMS_P1;PMS_P2;Temp;Humidity;BMP_temperature;BMP_pressure;BME280_temperature;BME280_humidity;BME280_pressure;Samples;Min_cycle;Max_cycle;Signal;HPM_P1;HPM_P2
2023/10/12 00:00:28;;;;;;;8.93;3.85;;;;;;;;;;5020861;28;20661;-83
2023/10/12 00:02:57;;;;;;;13.50;3.35;;;;;;;;;;5016991;28;20163;-85
2023/10/12 00:05:27;;;;;;;10.35;4.03;;;;;;;;;;5017058;28;20080;-80
2023/10/12 00:07:54;;;;;;;11.02;3.22;;;;;;;;;;5018032;28;20088;-82
2023/10/12 00:10:21;;;;;;;7.85;3.38;;;;;;;;;;5002161;28;20025;-83
2023/10/12 00:12:50;;;;;;;11.93;3.67;;;;;;;;;;5016780;28;20101;-81
2023/10/12 00:17:46;;;;;;;9.25;3.45;;;;;;;;;;5017233;28;20049;-83
2023/10/12 00:20:34;;;;;;;9.30;3.03;;;;;;;;;;5021421;28;20044;-86
2023/10/12 00:23:10;;;;;;;18.30;3.60;;;;;;;;;;5004363;28;20365;-84
2023/10/12 00:26:06;;;;;;;15.20;3.90;;;;;;;;;;5015333;28;20033;-79
2023/10/12 00:28:38;;;;;;;12.80;3.90;;;;;;;;;;5018190;28;20022;-84
2023/10/12 00:31:16;;;;;;;24.77;4.18;;;;;;;;;;5016634;28;20033;-85
2023/10/12 00:33:42;;;;;;;18.30;4.00;;;;;;;;;;5000756;28;20025;-81
2023/10/12 00:36:19;;;;;;;10.48;3.17;;;;;;;;;;5015737;28;20033;-81
2023/10/12 00:38:46;;;;;;;14.88;3.45;;;;;;;;;;5016257;28;20101;-82
2023/10/12 00:41:14;;;;;;;11.63;3.42;;;;;;;;;;5017242;28;20099;-81
2023/10/12 00:44:08;;;;;;;10.98;3.35;;;;;;;;;;5020866;28;20897;-85
2023/10/12 00:49:21;;;;;;;9.40;3.80;;;;;;;;;;5020812;28;20058;-80
2023/10/12 00:51:51;;;;;;;11.82;3.75;;;;;;;;;;5003916;28;20115;-85
2023/10/12 00:54:28;;;;;;;15.80;3.53;;;;;;;;;;5020818;28;20075;-83
2023/10/12 00:56:57;;;;;;;12.48;3.17;;;;;;;;;;5018690;28;20097;-85
2023/10/12 00:59:25;;;;;;;16.02;3.30;;;;;;;;;;5018880;28;20033;-83
2023/10/12 01:01:51;;;;;;;10.27;3.53;;;;;;;;;;5020331;28;20040;-85
2023/10/12 01:04:22;;;;;;;16.38;4.07;;;;;;;;;;5008739;28;20025;-84
2023/10/12 01:06:48;;;;;;;10.13;3.40;;;;;;;;;;5019635;28;20041;-82
2023/10/12 01:09:20;;;;;;;7.40;3.47;;;;;;;;;;5019408;28;20036;-86
2023/10/12 01:12:00;;;;;;;14.48;3.47;;;;;;;;;;5018508;28;20029;-82
2023/10/12 01:14:31;;;;;;;9.65;3.58;;;;;;;;;;5019908;28;20034;-82
2023/10/12 01:17:04;;;;;;;15.43;3.92;;;;;;;;;;5003707;28;20274;-82
2023/10/12 01:19:44;;;;;;;15.35;3.88;;;;;;;;;;5007813;28;20021;-83
2023/10/12 01:22:14;;;;;;;13.60;4.32;;;;;;;;;;5007568;28;20079;-83
2023/10/12 01:27:18;;;;;;;12.52;3.28;;;;;;;;;;5018972;28;20033;-84
2023/10/12 01:29:46;;;;;;;11.05;3.55;;;;;;;;;;5008512;28;20026;-79
2023/10/12 01:34:49;;;;;;;10.50;3.63;;;;;;;;;;5018266;28;20429;-81
2023/10/12 01:37:26;;;;;;;9.50;4.20;;;;;;;;;;5002811;28;20888;-83
2023/10/12 01:45:19;;;;;;;8.45;3.28;;;;;;;;;;5019264;28;20037;-79
2023/10/12 01:50:37;;;;;;;10.30;3.17;;;;;;;;;;5024591;28;20071;-82
2023/10/12 01:55:48;;;;;;;13.52;3.85;;;;;;;;;;5020142;28;20037;-79
2023/10/12 01:58:18;;;;;;;7.15;3.40;;;;;;;;;;5006785;28;20021;-80
2023/10/12 02:00:52;;;;;;;9.05;3.22;;;;;;;;;;5028710;28;20026;-81
2023/10/12 02:03:32;;;;;;;12.95;3.25;;;;;;;;;;5029763;28;20033;-75
2023/10/12 02:06:12;;;;;;;;;;;;;;;;;;;;;
2023/10/12 02:08:39;;;;;;;7.40;2.83;;;;;;;;;;5028984;28;20038;-80
2023/10/12 02:11:11;;;;;;;13.35;3.60;;;;;;;;;;5001646;28;20084;-82
2023/10/12 02:13:41;;;;;;;9.98;3.20;;;;;;;;;;5003252;28;20037;-78
2023/10/12 02:16:07;;;;;;;19.58;3.53;;;;;;;;;;5032716;28;20028;-74
2023/10/12 02:18:34;;;;;;;7.57;3.15;;;;;;;;;;5040843;28;20048;-75
2023/10/12 02:21:08;;;;;;;15.18;3.22;;;;;;;;;;5019946;28;20459;-83
2023/10/12 02:23:38;;;;;;;15.45;4.18;;;;;;;;;;5023014;28;20469;-81
2023/10/12 02:26:07;;;;;;;12.52;3.67;;;;;;;;;;5006157;28;20025;-78
2023/10/12 02:28:37;;;;;;;7.32;3.92;;;;;;;;;;5020933;28;20032;-75
2023/10/12 02:31:04;;;;;;;12.55;4.32;;;;;;;;;;5049115;28;20021;-75
2023/10/12 02:33:36;;;;;;;8.27;3.75;;;;;;;;;;5048457;28;20026;-74
2023/10/12 02:36:06;;;;;;;12.63;4.25;;;;;;;;;;5047620;28;20061;-74
2023/10/12 02:38:34;;;;;;;7.97;4.18;;;;;;;;;;5049504;28;20016;-75
2023/10/12 02:41:00;;;;;;;12.60;4.07;;;;;;;;;;5031141;28;20029;-74
2023/10/12 02:43:31;;;;;;;11.20;4.22;;;;;;;;;;5046381;28;20028;-75
2023/10/12 02:46:03;;;;;;;14.43;5.03;;;;;;;;;;5047758;28;20014;-74
2023/10/12 02:48:29;;;;;;;10.65;4.57;;;;;;;;;;5030127;28;20025;-74
2023/10/12 02:50:58;;;;;;;10.32;3.97;;;;;;;;;;5036313;28;20029;-77
2023/10/12 02:53:30;;;;;;;10.65;3.95;;;;;;;;;;5036977;28;20128;-74
2023/10/12 02:55:58;;;;;;;9.88;4.07;;;;;;;;;;5033166;28;20040;-74
2023/10/12 02:58:33;;;;;;;10.70;4.32;;;;;;;;;;5050672;28;20018;-74
2023/10/12 03:01:12;;;;;;;8.82;4.32;;;;;;;;;;5036142;28;20022;-74
2023/10/12 03:03:39;;;;;;;7.85;4.38;;;;;;;;;;5036785;28;20025;-74
2023/10/12 03:06:08;;;;;;;10.45;4.47;;;;;;;;;;5038501;28;20089;-74
2023/10/12 03:08:48;;;;;;;7.82;4.45;;;;;;;;;;5038980;28;20021;-73
2023/10/12 03:11:15;;;;;;;13.68;5.18;;;;;;;;;;5049994;28;20018;-74
2023/10/12 03:13:54;;;;;;;10.18;4.38;;;;;;;;;;5048534;28;20045;-74
2023/10/12 03:16:21;;;;;;;15.68;5.05;;;;;;;;;;5048286;28;20041;-74
2023/10/12 03:21:46;;;;;;;12.75;4.85;;;;;;;;;;5031931;28;20022;-75
2023/10/12 03:24:15;;;;;;;19.50;4.90;;;;;;;;;;5031745;28;20045;-74
2023/10/12 03:26:42;;;;;;;10.25;5.25;;;;;;;;;;5031118;28;20010;-74
2023/10/12 03:32:04;;;;;;;17.20;5.78;;;;;;;;;;5046451;28;20022;-74
2023/10/12 03:37:03;;;;;;;12.85;5.10;;;;;;;;;;5047461;28;20071;-73
2023/10/12 03:39:31;;;;;;;11.65;4.82;;;;;;;;;;5049080;28;20020;-74
2023/10/12 03:52:19;;;;;;;;;;;;;;;;;;5048503;28;20045;-74
2023/10/12 04:02:58;;;;;;;15.00;6.32;;;;;;;;;;5048349;28;20045;-74
2023/10/12 04:05:46;;;;;;;18.13;6.00;;;;;;;;;;5030120;28;20009;-75
2023/10/12 04:08:59;;;;;;;11.60;6.00;;;;;;;;;;5046657;28;20022;-74
2023/10/12 04:11:42;;;;;;;14.52;6.18;;;;;;;;;;5039253;28;20029;-75
2023/10/12 04:14:17;;;;;;;11.05;7.07;;;;;;;;;;5045017;28;20089;-74
2023/10/12 04:16:45;;;;;;;16.40;6.15;;;;;;;;;;5046900;28;20029;-74
2023/10/12 04:19:15;;;;;;;9.95;6.30;;;;;;;;;;5047523;28;20014;-74
2023/10/12 04:22:15;;;;;;;10.52;6.20;;;;;;;;;;5046891;28;20037;-73
2023/10/12 04:24:27;;;;;;;9.80;5.40;;;;;;;;;;5047869;28;20128;-75
2023/10/12 04:27:12;;;;;;;13.93;6.68;;;;;;;;;;5032406;28;20021;-74
2023/10/12 04:29:41;;;;;;;9.38;5.43;;;;;;;;;;5035136;28;20029;-75
2023/10/12 04:32:11;;;;;;;12.70;5.60;;;;;;;;;;5047335;28;20030;-74
2023/10/12 04:34:49;;;;;;;15.25;6.07;;;;;;;;;;5048711;28;20013;-75
2023/10/12 04:37:25;;;;;;;14.57;5.90;;;;;;;;;;5048861;28;20040;-74
2023/10/12 04:39:56;;;;;;;23.25;6.07;;;;;;;;;;5049858;28;20026;-75
2023/10/12 04:42:34;;;;;;;11.75;5.93;;;;;;;;;;5046756;28;20017;-73
2023/10/12 04:45:23;;;;;;;11.50;5.95;;;;;;;;;;5044225;28;20148;-74
2023/10/12 04:47:54;;;;;;;13.13;7.03;;;;;;;;;;5046742;28;20030;-74
2023/10/12 04:50:43;;;;;;;10.27;5.45;;;;;;;;;;5030965;28;20041;-75
2023/10/12 04:53:12;;;;;;;12.10;5.60;;;;;;;;;;5046325;28;20035;-75
2023/10/12 04:55:47;;;;;;;12.68;5.75;;;;;;;;;;5046591;28;20032;-75
2023/10/12 04:58:31;;;;;;;13.30;5.72;;;;;;;;;;5046425;28;20302;-74
2023/10/12 05:01:12;;;;;;;12.90;6.30;;;;;;;;;;5047918;28;20005;-74
2023/10/12 05:03:41;;;;;;;17.90;7.47;;;;;;;;;;5047761;28;20132;-74
2023/10/12 05:06:13;;;;;;;12.93;6.18;;;;;;;;;;5046780;28;20029;-75
2023/10/12 05:08:40;;;;;;;11.52;6.03;;;;;;;;;;5047335;28;20021;-74
2023/10/12 05:11:08;;;;;;;11.20;6.57;;;;;;;;;;5029671;28;20052;-76
2023/10/12 05:13:43;;;;;;;19.58;6.13;;;;;;;;;;5046805;28;20041;-75
2023/10/12 05:16:09;;;;;;;17.60;6.93;;;;;;;;;;5046948;28;20039;-74
2023/10/12 05:18:37;;;;;;;13.70;6.40;;;;;;;;;;5047416;28;20041;-74
2023/10/12 05:21:10;;;;;;;17.25;7.18;;;;;;;;;;5045743;28;20010;-75
2023/10/12 05:23:37;;;;;;;13.65;6.38;;;;;;;;;;5047057;28;20085;-74
2023/10/12 05:28:30;;;;;;;13.35;7.18;;;;;;;;;;5048934;28;20301;-74
2023/10/12 05:30:59;;;;;;;12.05;6.32;;;;;;;;;;5049389;28;20060;-75
2023/10/12 05:36:08;;;;;;;11.48;6.72;;;;;;;;;;5047800;28;20113;-74
2023/10/12 05:38:35;;;;;;;21.90;8.02;;;;;;;;;;5035567;28;20027;-74
2023/10/12 05:41:02;;;;;;;11.45;6.93;;;;;;;;;;5050942;28;20052;-74
2023/10/12 05:43:36;;;;;;;19.58;7.63;;;;;;;;;;5050291;28;20018;-74
2023/10/12 05:46:09;;;;;;;12.05;6.38;;;;;;;;;;5049009;28;20293;-74
2023/10/12 05:48:36;;;;;;;19.60;7.45;;;;;;;;;;5049909;28;20077;-75
2023/10/12 05:51:03;;;;;;;11.57;7.13;;;;;;;;;;5035814;28;20080;-74
2023/10/12 05:53:29;;;;;;;16.63;7.60;;;;;;;;;;5048971;28;20020;-74
2023/10/12 05:55:56;;;;;;;12.57;6.97;;;;;;;;;;5048673;28;20044;-75
2023/10/12 05:58:25;;;;;;;12.77;5.97;;;;;;;;;;5049306;28;20033;-75
2023/10/12 06:01:05;;;;;;;10.43;6.38;;;;;;;;;;5048570;28;20065;-74
2023/10/12 06:03:34;;;;;;;11.25;5.97;;;;;;;;;;5030801;28;20025;-74
2023/10/12 06:06:00;;;;;;;12.55;6.78;;;;;;;;;;5032441;28;20208;-74
2023/10/12 06:08:30;;;;;;;11.10;6.95;;;;;;;;;;5047164;28;20068;-74
2023/10/12 06:10:58;;;;;;;12.25;6.72;;;;;;;;;;5048795;28;20020;-74
2023/10/12 06:13:31;;;;;;;16.67;7.75;;;;;;;;;;5031101;28;20010;-73
2023/10/12 06:15:57;;;;;;;16.40;8.50;;;;;;;;;;5031578;28;20017;-74
2023/10/12 06:18:29;;;;;;;18.90;8.07;;;;;;;;;;5048865;28;20094;-75
2023/10/12 06:21:06;;;;;;;;;;;;;;;;;;5030884;28;20028;-74
2023/10/12 06:23:32;;;;;;;19.80;8.50;;;;;;;;;;5038317;28;19921;-74
2023/10/12 06:26:00;;;;;;;20.15;9.38;;;;;;;;;;5048138;28;20030;-74
2023/10/12 06:28:29;;;;;;;17.05;9.48;;;;;;;;;;5048148;28;20202;-74
2023/10/12 06:30:57;;;;;;;21.40;10.27;;;;;;;;;;5047349;28;20118;-74
2023/10/12 06:33:23;;;;;;;25.55;8.40;;;;;;;;;;5047230;28;20052;-75
2023/10/12 06:35:58;;;;;;;16.27;9.00;;;;;;;;;;5035466;28;20025;-77
2023/10/12 06:38:47;;;;;;;18.83;10.75;;;;;;;;;;5032497;28;20022;-74
2023/10/12 06:43:59;;;;;;;17.95;9.38;;;;;;;;;;5047862;28;20025;-74
2023/10/12 06:46:43;;;;;;;17.48;9.40;;;;;;;;;;5047441;28;20017;-74
2023/10/12 06:49:16;;;;;;;23.50;10.82;;;;;;;;;;5030483;28;20036;-75
2023/10/12 06:51:42;;;;;;;24.17;10.45;;;;;;;;;;5031628;28;20022;-74
2023/10/12 06:54:19;;;;;;;20.35;9.98;;;;;;;;;;5047348;28;20041;-75
2023/10/12 06:56:51;;;;;;;20.88;10.25;;;;;;;;;;5031291;28;20042;-74
2023/10/12 06:59:21;;;;;;;28.20;10.70;;;;;;;;;;5047980;28;20052;-75
2023/10/12 07:04:36;;;;;;;22.23;10.63;;;;;;;;;;5045825;28;20064;-73
2023/10/12 07:07:11;;;;;;;22.60;11.68;;;;;;;;;;5045466;28;20041;-74
2023/10/12 07:09:40;;;;;;;14.60;9.77;;;;;;;;;;5047535;28;20081;-74
2023/10/12 07:12:11;;;;;;;16.83;9.50;;;;;;;;;;5046851;28;20051;-74
2023/10/12 07:14:46;;;;;;;18.53;9.77;;;;;;;;;;5045957;28;20056;-74
2023/10/12 07:17:12;;;;;;;18.27;10.13;;;;;;;;;;5030350;28;20682;-75
2023/10/12 07:19:40;;;;;;;17.00;9.27;;;;;;;;;;5031154;28;20049;-74
2023/10/12 07:22:15;;;;;;;17.10;9.65;;;;;;;;;;5047634;28;20020;-74
2023/10/12 07:24:42;;;;;;;17.55;8.48;;;;;;;;;;5047449;28;20010;-74
2023/10/12 07:27:22;;;;;;;17.55;8.43;;;;;;;;;;5031445;28;20052;-74
2023/10/12 07:30:00;;;;;;;15.43;8.45;;;;;;;;;;5047129;28;20137;-74
2023/10/12 07:34:57;;;;;;;15.65;8.68;;;;;;;;;;5047657;28;20074;-74
2023/10/12 07:37:27;;;;;;;19.02;8.82;;;;;;;;;;5045728;28;20052;-74
2023/10/12 07:39:56;;;;;;;18.73;8.43;;;;;;;;;;5029996;28;20021;-74
2023/10/12 07:42:31;;;;;;;23.20;8.68;;;;;;;;;;5027054;28;20033;-74
2023/10/12 07:45:05;;;;;;;15.00;7.82;;;;;;;;;;5045591;28;20041;-74
2023/10/12 07:47:32;;;;;;;18.13;7.85;;;;;;;;;;5047781;28;20029;-74
2023/10/12 07:50:07;;;;;;;19.65;8.57;;;;;;;;;;5044690;28;20022;-74
2023/10/12 07:55:12;;;;;;;15.48;8.27;;;;;;;;;;5046470;28;20059;-74
2023/10/12 07:57:38;;;;;;;18.50;8.65;;;;;;;;;;5032301;28;20037;-74
2023/10/12 08:15:59;;;;;;;17.52;7.32;;;;;;;;;;5046456;28;20034;-73
2023/10/12 08:24:09;;;;;;;17.08;8.38;;;;;;;;;;5044701;28;20040;-73
2023/10/12 08:26:47;;;;;;;18.83;7.97;;;;;;;;;;5031704;28;20026;-74
2023/10/12 08:31:43;;;;;;;21.05;8.20;;;;;;;;;;5046283;28;20026;-74
2023/10/12 08:34:13;;;;;;;14.25;7.85;;;;;;;;;;5031354;28;20029;-74
2023/10/12 08:39:37;;;;;;;14.48;8.43;;;;;;;;;;5045700;28;20028;-73
2023/10/12 08:44:48;;;;;;;13.93;8.32;;;;;;;;;;5045489;28;20045;-74
2023/10/12 08:47:25;;;;;;;17.38;8.38;;;;;;;;;;5045140;28;20044;-74
2023/10/12 08:50:01;;;;;;;17.15;8.43;;;;;;;;;;5044225;28;20025;-75
2023/10/12 08:52:30;;;;;;;16.10;8.65;;;;;;;;;;5043761;28;20024;-74
2023/10/12 08:55:04;;;;;;;20.05;8.77;;;;;;;;;;5030186;28;20020;-73
2023/10/12 08:57:38;;;;;;;14.77;9.00;;;;;;;;;;5045983;28;20029;-75
2023/10/12 09:02:53;;;;;;;18.48;8.27;;;;;;;;;;5047461;28;20097;-74
2023/10/12 09:05:33;;;;;;;25.92;10.02;;;;;;;;;;5049750;28;20013;-74
2023/10/12 09:13:29;;;;;;;17.95;8.98;;;;;;;;;;5052184;28;20040;-74
2023/10/12 09:15:59;;;;;;;14.15;8.50;;;;;;;;;;5046924;28;20021;-75
2023/10/12 09:18:29;;;;;;;17.23;9.57;;;;;;;;;;5024151;28;20096;-76
2023/10/12 09:23:29;;;;;;;19.25;9.25;;;;;;;;;;5028111;28;20034;-78
2023/10/12 09:28:51;;;;;;;20.42;9.15;;;;;;;;;;5020728;28;20061;-79
2023/10/12 09:36:29;;;;;;;16.55;9.20;;;;;;;;;;5019739;28;20041;-82
2023/10/12 09:39:00;;;;;;;15.57;9.43;;;;;;;;;;5004496;28;20051;-79
2023/10/12 09:41:37;;;;;;;25.98;9.73;;;;;;;;;;5019735;28;20025;-80
2023/10/12 09:44:05;;;;;;;20.02;9.57;;;;;;;;;;5020730;28;20030;-80
2023/10/12 09:46:33;;;;;;;18.73;8.32;;;;;;;;;;5021115;28;20069;-80
2023/10/12 09:49:21;;;;;;;16.17;8.73;;;;;;;;;;5023456;28;20076;-81
2023/10/12 09:51:49;;;;;;;17.10;8.65;;;;;;;;;;5002867;28;20038;-79
2023/10/12 09:54:18;;;;;;;14.77;9.18;;;;;;;;;;5002512;28;20126;-83
2023/10/12 09:56:57;;;;;;;15.45;9.02;;;;;;;;;;5007304;28;20051;-80
2023/10/12 09:59:29;;;;;;;16.40;8.65;;;;;;;;;;5019140;28;20025;-79
2023/10/12 10:02:04;;;;;;;16.52;8.27;;;;;;;;;;5003959;28;20030;-82
2023/10/12 10:04:34;;;;;;;13.88;7.68;;;;;;;;;;5018827;28;20144;-84
2023/10/12 10:07:14;;;;;;;17.90;7.28;;;;;;;;;;5018112;28;20029;-85
2023/10/12 10:09:45;;;;;;;15.15;7.45;;;;;;;;;;5021201;28;20070;-84
2023/10/12 10:12:11;;;;;;;12.80;7.05;;;;;;;;;;5005911;28;20045;-81
2023/10/12 10:14:44;;;;;;;18.23;8.32;;;;;;;;;;5001998;28;20037;-83
2023/10/12 10:17:20;;;;;;;21.50;9.25;;;;;;;;;;5018167;28;20044;-83
2023/10/12 10:19:54;;;;;;;13.13;7.53;;;;;;;;;;5007825;28;20172;-83
2023/10/12 10:22:24;;;;;;;17.77;8.13;;;;;;;;;;5017549;28;20115;-80
2023/10/12 10:24:57;;;;;;;16.45;7.95;;;;;;;;;;5005255;28;20038;-82
2023/10/12 10:27:34;;;;;;;17.58;7.75;;;;;;;;;;5007437;28;20036;-80
2023/10/12 10:30:25;;;;;;;18.88;8.48;;;;;;;;;;5016459;28;20037;-80
2023/10/12 10:33:08;;;;;;;15.15;7.63;;;;;;;;;;5017116;28;20053;-81
2023/10/12 10:35:53;;;;;;;13.32;6.85;;;;;;;;;;5016708;28;20029;-84
2023/10/12 10:38:21;;;;;;;16.50;8.35;;;;;;;;;;5015873;28;20128;-84
2023/10/12 10:40:50;;;;;;;12.75;7.72;;;;;;;;;;5017473;28;20042;-84
2023/10/12 10:43:16;;;;;;;17.83;7.65;;;;;;;;;;5017306;28;20494;-79
2023/10/12 10:45:50;;;;;;;11.32;6.82;;;;;;;;;;5001769;28;20041;-81
2023/10/12 10:48:17;;;;;;;15.95;7.95;;;;;;;;;;5002164;28;20140;-80
2023/10/12 10:50:49;;;;;;;15.18;7.07;;;;;;;;;;5018062;28;20021;-81
2023/10/12 10:53:15;;;;;;;14.48;7.13;;;;;;;;;;5001136;28;20120;-80
2023/10/12 10:55:42;;;;;;;14.90;7.00;;;;;;;;;;5018902;28;20098;-83
2023/10/12 10:58:09;;;;;;;19.80;6.00;;;;;;;;;;5017909;28;20040;-81
2023/10/12 11:00:45;;;;;;;16.52;6.68;;;;;;;;;;5003859;28;20065;-83
2023/10/12 11:03:17;;;;;;;13.18;6.53;;;;;;;;;;5017222;28;20037;-81
2023/10/12 11:05:46;;;;;;;15.07;6.65;;;;;;;;;;4999603;28;20088;-83
2023/10/12 11:08:21;;;;;;;16.02;6.80;;;;;;;;;;5000114;28;20038;-84
2023/10/12 11:13:33;;;;;;;11.00;5.85;;;;;;;;;;5016288;28;20147;-81
2023/10/12 11:16:20;;;;;;;19.17;6.25;;;;;;;;;;5000047;28;20049;-81
2023/10/12 11:18:47;;;;;;;18.40;5.75;;;;;;;;;;5000775;28;20040;-84
2023/10/12 11:21:16;;;;;;;11.32;5.45;;;;;;;;;;5016074;28;20029;-84
2023/10/12 11:23:45;;;;;;;14.73;5.40;;;;;;;;;;5000659;28;20061;-83
2023/10/12 11:26:18;;;;;;;11.27;5.63;;;;;;;;;;5015632;28;20091;-81
2023/10/12 11:28:45;;;;;;;14.48;5.20;;;;;;;;;;5016034;28;20033;-82
2023/10/12 11:31:20;;;;;;;11.98;5.28;;;;;;;;;;5015476;28;20044;-83
2023/10/12 11:33:55;;;;;;;11.82;5.30;;;;;;;;;;5015391;28;20037;-78
2023/10/12 11:36:24;;;;;;;16.25;5.65;;;;;;;;;;5014762;28;20029;-83
2023/10/12 11:39:03;;;;;;;14.38;5.82;;;;;;;;;;5000668;28;20610;-82
2023/10/12 11:41:30;;;;;;;9.00;5.18;;;;;;;;;;5014402;28;20100;-80
2023/10/12 11:44:05;;;;;;;12.10;4.75;;;;;;;;;;5014870;28;20199;-84
2023/10/12 11:46:40;;;;;;;7.40;4.90;;;;;;;;;;5000058;28;20397;-82
2023/10/12 11:49:10;;;;;;;15.88;5.55;;;;;;;;;;5014598;28;20029;-80
2023/10/12 11:51:40;;;;;;;13.70;5.25;;;;;;;;;;5016286;28;20894;-82
2023/10/12 11:54:09;;;;;;;15.65;5.78;;;;;;;;;;5015083;28;20033;-81
2023/10/12 11:56:43;;;;;;;10.90;5.10;;;;;;;;;;4999361;28;20040;-84
2023/10/12 11:59:17;;;;;;;13.35;5.55;;;;;;;;;;5004909;28;20386;-81
2023/10/12 12:01:45;;;;;;;10.80;4.82;;;;;;;;;;5000626;28;20084;-84
2023/10/12 12:04:18;;;;;;;14.82;5.10;;;;;;;;;;5015013;28;20033;-83
2023/10/12 12:06:45;;;;;;;10.40;4.93;;;;;;;;;;5014677;28;20022;-83
2023/10/12 12:09:14;;;;;;;11.02;4.80;;;;;;;;;;5000750;28;20328;-81
2023/10/12 12:11:43;;;;;;;11.45;4.60;;;;;;;;;;5001216;28;20343;-77
2023/10/12 12:14:09;;;;;;;15.63;6.20;;;;;;;;;;5018290;28;20037;-84
2023/10/12 12:16:38;;;;;;;17.02;6.43;;;;;;;;;;5014816;28;20034;-83
2023/10/12 12:19:06;;;;;;;14.77;5.32;;;;;;;;;;5000504;28;20040;-82
2023/10/12 12:21:35;;;;;;;11.27;5.05;;;;;;;;;;5015274;28;20047;-79
2023/10/12 12:24:22;;;;;;;13.43;5.82;;;;;;;;;;5013500;28;20037;-82
2023/10/12 12:26:51;;;;;;;16.58;5.63;;;;;;;;;;5000474;28;20033;-84
2023/10/12 12:29:21;;;;;;;12.48;4.85;;;;;;;;;;5015053;28;20099;-81
2023/10/12 12:31:48;;;;;;;12.05;5.10;;;;;;;;;;5014572;28;20096;-80
2023/10/12 12:34:38;;;;;;;14.63;5.82;;;;;;;;;;5014262;28;20030;-81
2023/10/12 12:37:00;;;;;;;10.80;5.03;;;;;;;;;;5014163;28;20034;-80
2023/10/12 12:39:32;;;;;;;14.23;4.85;;;;;;;;;;5015376;28;20039;-83
2023/10/12 12:41:58;;;;;;;14.60;4.18;;;;;;;;;;5015753;28;20059;-82
2023/10/12 12:44:26;;;;;;;8.90;3.97;;;;;;;;;;5006358;28;20033;-80
2023/10/12 12:46:56;;;;;;;13.43;4.53;;;;;;;;;;5016917;28;20041;-83
2023/10/12 12:49:24;;;;;;;13.60;5.07;;;;;;;;;;5007602;28;20033;-81
2023/10/12 12:51:50;;;;;;;10.27;3.72;;;;;;;;;;5005510;28;20389;-84
2023/10/12 12:54:16;;;;;;;7.13;3.72;;;;;;;;;;5016614;28;20030;-82
2023/10/12 12:56:45;;;;;;;12.80;4.18;;;;;;;;;;5015812;28;20033;-80
2023/10/12 12:59:11;;;;;;;14.35;3.85;;;;;;;;;;5004394;28;20037;-82
2023/10/12 13:01:41;;;;;;;15.20;4.00;;;;;;;;;;5002909;28;20514;-79
2023/10/12 13:04:11;;;;;;;12.98;4.47;;;;;;;;;;5015032;28;20186;-84
2023/10/12 13:06:38;;;;;;;16.98;4.05;;;;;;;;;;5005649;28;20053;-82
2023/10/12 13:09:04;;;;;;;11.23;4.18;;;;;;;;;;4999200;28;20036;-81
2023/10/12 13:11:30;;;;;;;9.60;3.85;;;;;;;;;;5015541;28;20260;-82
2023/10/12 13:13:58;;;;;;;13.70;3.60;;;;;;;;;;5004697;28;20133;-84
2023/10/12 13:16:24;;;;;;;12.32;3.60;;;;;;;;;;4998620;28;20041;-80
2023/10/12 13:18:50;;;;;;;9.77;4.13;;;;;;;;;;4999062;28;20030;-83
2023/10/12 13:21:17;;;;;;;9.45;3.72;;;;;;;;;;5014444;28;20065;-81
2023/10/12 13:23:44;;;;;;;14.57;4.22;;;;;;;;;;5014020;28;20121;-80
2023/10/12 13:26:11;;;;;;;8.40;4.40;;;;;;;;;;4999573;28;20105;-80
2023/10/12 13:28:38;;;;;;;9.88;4.32;;;;;;;;;;5015472;28;20033;-81
2023/10/12 13:31:05;;;;;;;12.05;4.13;;;;;;;;;;4999219;28;20029;-80
2023/10/12 13:33:31;;;;;;;8.63;3.67;;;;;;;;;;4999992;28;20109;-81
2023/10/12 13:35:58;;;;;;;7.28;3.53;;;;;;;;;;5016171;28;20025;-84
2023/10/12 13:38:31;;;;;;;7.78;3.58;;;;;;;;;;4999400;28;20542;-83
2023/10/12 13:40:57;;;;;;;12.07;3.67;;;;;;;;;;5015079;28;20455;-84
2023/10/12 13:43:30;;;;;;;9.38;4.95;;;;;;;;;;5015461;28;20089;-81
2023/10/12 13:45:56;;;;;;;;;;;;;;;;;;5015798;28;20037;-84
2023/10/12 13:48:25;;;;;;;13.23;4.05;;;;;;;;;;5017625;28;19916;-81
2023/10/12 13:50:59;;;;;;;11.88;3.58;;;;;;;;;;5019629;28;20033;-84
2023/10/12 13:53:25;;;;;;;11.38;3.88;;;;;;;;;;5017561;28;20033;-81
2023/10/12 13:55:53;;;;;;;10.63;3.97;;;;;;;;;;5007516;28;20037;-79
2023/10/12 13:58:23;;;;;;;8.95;3.78;;;;;;;;;;5002645;28;20033;-81
2023/10/12 14:00:51;;;;;;;8.10;3.95;;;;;;;;;;5019498;28;21644;-82
2023/10/12 14:03:17;;;;;;;9.38;3.13;;;;;;;;;;5019379;28;21781;-80
2023/10/12 14:05:43;;;;;;;12.77;3.95;;;;;;;;;;5007367;28;20021;-83
2023/10/12 14:08:12;;;;;;;12.10;4.85;;;;;;;;;;5019221;28;20025;-80
2023/10/12 14:10:42;;;;;;;8.85;4.05;;;;;;;;;;5020296;28;20049;-81
2023/10/12 14:13:08;;;;;;;11.55;3.80;;;;;;;;;;5017654;28;20045;-81
2023/10/12 14:15:37;;;;;;;7.30;3.28;;;;;;;;;;5001948;28;20421;-83
2023/10/12 14:18:03;;;;;;;8.15;3.40;;;;;;;;;;5017910;28;20120;-82
2023/10/12 14:20:32;;;;;;;11.25;4.25;;;;;;;;;;5020242;28;20025;-83
2023/10/12 14:23:05;;;;;;;11.85;3.92;;;;;;;;;;5017928;28;20021;-81
2023/10/12 14:25:32;;;;;;;11.65;4.25;;;;;;;;;;5005006;28;20021;-80
2023/10/12 14:28:01;;;;;;;7.75;3.55;;;;;;;;;;5017753;28;20463;-83
2023/10/12 14:30:30;;;;;;;12.25;3.85;;;;;;;;;;5018503;28;20079;-82
2023/10/12 14:33:02;;;;;;;13.25;4.25;;;;;;;;;;5004961;28;20112;-83
2023/10/12 14:35:35;;;;;;;9.02;3.70;;;;;;;;;;5003423;28;20129;-80
2023/10/12 14:38:06;;;;;;;10.27;3.83;;;;;;;;;;5021829;28;20033;-81
2023/10/12 14:40:40;;;;;;;9.43;3.50;;;;;;;;;;5003733;28;20500;-79
2023/10/12 14:43:06;;;;;;;13.63;3.72;;;;;;;;;;5007071;28;20091;-81
2023/10/12 14:45:38;;;;;;;7.95;3.67;;;;;;;;;;5017891;28;20064;-83
2023/10/12 14:48:11;;;;;;;7.72;3.47;;;;;;;;;;5019427;28;20048;-80
2023/10/12 14:50:45;;;;;;;9.98;3.13;;;;;;;;;;5017679;28;20468;-79
2023/10/12 14:53:15;;;;;;;9.77;3.88;;;;;;;;;;5007885;28;20029;-84
2023/10/12 14:55:44;;;;;;;9.38;4.00;;;;;;;;;;5009371;28;20029;-83
2023/10/12 14:58:13;;;;;;;8.50;3.50;;;;;;;;;;5001609;28;20091;-80
2023/10/12 15:00:43;;;;;;;9.43;3.28;;;;;;;;;;5016938;28;20049;-82
2023/10/12 15:03:09;;;;;;;10.30;5.18;;;;;;;;;;5017148;28;20026;-84
2023/10/12 15:05:39;;;;;;;10.43;3.55;;;;;;;;;;5019322;28;20082;-80
2023/10/12 15:08:07;;;;;;;9.27;4.15;;;;;;;;;;5003950;28;20068;-83
2023/10/12 15:10:43;;;;;;;10.57;4.95;;;;;;;;;;5008926;28;20037;-83
2023/10/12 15:13:16;;;;;;;9.40;3.20;;;;;;;;;;5016983;28;20119;-83
2023/10/12 15:15:45;;;;;;;9.15;3.63;;;;;;;;;;5016306;28;20033;-80
2023/10/12 15:18:12;;;;;;;9.48;3.85;;;;;;;;;;5001330;28;20037;-80
2023/10/12 15:20:44;;;;;;;9.23;4.03;;;;;;;;;;5017274;28;20044;-83
2023/10/12 15:23:10;;;;;;;9.90;3.70;;;;;;;;;;4999505;28;20021;-81
2023/10/12 15:25:36;;;;;;;9.25;3.70;;;;;;;;;;5005512;28;20033;-81
2023/10/12 15:28:03;;;;;;;10.38;4.15;;;;;;;;;;5016774;28;20450;-80
2023/10/12 15:30:29;;;;;;;12.38;4.20;;;;;;;;;;5016053;28;20648;-83
2023/10/12 15:32:55;;;;;;;12.93;3.85;;;;;;;;;;5018050;28;20033;-82
2023/10/12 15:35:23;;;;;;;10.55;4.28;;;;;;;;;;5017531;28;20033;-80
2023/10/12 15:37:55;;;;;;;9.45;4.13;;;;;;;;;;5018190;28;20545;-84
2023/10/12 15:40:25;;;;;;;9.82;4.30;;;;;;;;;;5015762;28;20057;-81
2023/10/12 15:42:52;;;;;;;8.68;3.85;;;;;;;;;;5000997;28;20046;-82
2023/10/12 15:45:19;;;;;;;6.57;4.10;;;;;;;;;;5017044;28;20126;-83
2023/10/12 15:47:46;;;;;;;10.15;4.72;;;;;;;;;;5015640;28;22130;-84
2023/10/12 15:50:12;;;;;;;12.88;4.32;;;;;;;;;;5016717;28;20184;-83
2023/10/12 15:52:38;;;;;;;9.02;3.10;;;;;;;;;;5016258;28;20447;-83
2023/10/12 15:55:05;;;;;;;9.13;4.05;;;;;;;;;;5001084;28;20036;-79
2023/10/12 15:57:34;;;;;;;6.20;3.10;;;;;;;;;;5016486;28;20076;-82
2023/10/12 16:00:03;;;;;;;7.20;4.22;;;;;;;;;;5014423;28;20038;-80
2023/10/12 16:02:29;;;;;;;9.70;3.80;;;;;;;;;;5001363;28;20030;-82
2023/10/12 16:04:58;;;;;;;11.15;3.55;;;;;;;;;;5006528;28;20021;-80
2023/10/12 16:07:27;;;;;;;6.00;2.95;;;;;;;;;;5016563;28;20037;-82
2023/10/12 16:09:53;;;;;;;9.45;3.60;;;;;;;;;;5000334;28;20033;-80
2023/10/12 16:12:19;;;;;;;8.15;3.53;;;;;;;;;;5016938;28;20042;-82
2023/10/12 16:14:51;;;;;;;9.18;4.22;;;;;;;;;;5016367;28;20038;-82
2023/10/12 16:17:21;;;;;;;14.32;4.82;;;;;;;;;;5009330;28;20068;-78
2023/10/12 16:19:47;;;;;;;10.98;4.18;;;;;;;;;;5000848;28;20031;-80
2023/10/12 16:22:13;;;;;;;12.57;4.65;;;;;;;;;;5018551;28;20044;-84
2023/10/12 16:24:42;;;;;;;11.48;4.35;;;;;;;;;;5003090;28;20084;-80
2023/10/12 16:27:10;;;;;;;8.35;4.60;;;;;;;;;;5019548;28;20069;-78
2023/10/12 16:29:38;;;;;;;17.95;10.52;;;;;;;;;;5017832;28;20034;-79
2023/10/12 16:32:05;;;;;;;11.45;6.18;;;;;;;;;;5017818;28;21728;-81
2023/10/12 16:34:30;;;;;;;9.63;4.57;;;;;;;;;;5009432;28;20029;-82
2023/10/12 16:36:59;;;;;;;8.55;5.22;;;;;;;;;;5001749;28;20450;-81
2023/10/12 16:39:28;;;;;;;14.55;5.40;;;;;;;;;;5016266;28;20033;-80
2023/10/12 16:41:59;;;;;;;11.25;6.28;;;;;;;;;;5016096;28;20026;-79
2023/10/12 16:44:25;;;;;;;11.85;6.38;;;;;;;;;;5001427;28;20029;-79
2023/10/12 16:46:53;;;;;;;12.93;6.22;;;;;;;;;;5017972;28;20048;-78
2023/10/12 16:49:22;;;;;;;9.65;5.72;;;;;;;;;;5018065;28;20490;-79